createdAt,value
2018-11-26T00:01:20.553Z,33.97
2018-11-26T00:03:49.585Z,34.03
2018-11-26T00:06:18.584Z,32.47
2018-11-26T00:08:47.504Z,34.73
2018-11-26T00:11:48.024Z,26.80
2018-11-26T00:14:17.093Z,29.53
2018-11-26T00:16:46.012Z,28.60
2018-11-26T00:19:15.007Z,28.50
2018-11-26T00:21:43.997Z,27.30
2018-11-26T00:24:12.889Z,26.87
2018-11-26T00:26:41.930Z,26.43
2018-11-26T00:29:10.876Z,28.27
2018-11-26T00:31:39.816Z,27.20
2018-11-26T00:34:09.015Z,29.27
2018-11-26T00:36:37.936Z,26.03
2018-11-26T00:39:09.950Z,24.50
2018-11-26T00:41:38.941Z,27.77
2018-11-26T00:44:08.417Z,27.03
2018-11-26T00:46:37.540Z,28.33
2018-11-26T00:49:06.467Z,26.07
2018-11-26T00:51:35.446Z,27.37
2018-11-26T00:54:04.434Z,27.40
2018-11-26T00:56:33.462Z,28.63
2018-11-26T00:59:02.450Z,27.97
2018-11-26T01:01:32.271Z,27.50
2018-11-26T01:04:01.318Z,25.93
2018-11-26T01:06:30.285Z,26.37
2018-11-26T01:08:59.868Z,29.27
2018-11-26T01:11:28.862Z,27.73
2018-11-26T01:13:58.938Z,28.90
2018-11-26T01:16:27.923Z,29.00
2018-11-26T01:18:56.829Z,27.40
2018-11-26T01:21:25.883Z,27.63
2018-11-26T01:23:54.952Z,28.27
2018-11-26T01:26:23.917Z,27.33
2018-11-26T01:28:52.893Z,27.47
2018-11-26T01:31:21.872Z,23.17
2018-11-26T01:33:50.843Z,28.47
2018-11-26T01:36:19.820Z,26.93
2018-11-26T01:38:48.829Z,30.00
2018-11-26T01:41:17.723Z,25.33
2018-11-26T01:43:46.752Z,23.60
2018-11-26T01:46:15.727Z,23.37
2018-11-26T01:48:44.670Z,27.13
2018-11-26T01:51:13.615Z,28.10
2018-11-26T01:53:42.714Z,27.13
2018-11-26T01:56:11.672Z,27.67
2018-11-26T01:58:40.647Z,26.70
2018-11-26T02:01:09.638Z,26.37
2018-11-26T02:03:38.551Z,26.23
2018-11-26T02:06:07.567Z,27.73
2018-11-26T02:08:36.640Z,27.03
2018-11-26T02:11:05.655Z,27.70
2018-11-26T02:13:34.573Z,27.00
2018-11-26T02:16:03.540Z,25.67
2018-11-26T02:18:32.561Z,28.67
2018-11-26T02:21:01.556Z,26.20
2018-11-26T02:23:30.724Z,25.00
2018-11-26T02:25:59.751Z,27.60
2018-11-26T02:28:28.810Z,25.23
2018-11-26T02:30:58.467Z,27.87
2018-11-26T02:33:27.458Z,25.77
2018-11-26T02:35:56.601Z,26.93
2018-11-26T02:38:25.645Z,27.50
2018-11-26T02:40:54.874Z,26.03
2018-11-26T02:43:23.923Z,26.73
2018-11-26T02:45:53.549Z,27.30
2018-11-26T02:48:22.565Z,26.53
2018-11-26T02:50:51.486Z,26.53
2018-11-26T02:53:20.580Z,26.80
2018-11-26T02:55:49.473Z,26.40
2018-11-26T02:58:18.401Z,25.67
2018-11-26T03:00:47.394Z,26.00
2018-11-26T03:03:16.889Z,26.43
2018-11-26T03:05:45.867Z,26.13
2018-11-26T03:08:15.557Z,27.47
2018-11-26T03:10:44.495Z,25.83
2018-11-26T03:13:13.457Z,26.70
2018-11-26T03:15:42.449Z,26.80
2018-11-26T03:18:11.504Z,26.73
2018-11-26T03:20:40.493Z,25.70
2018-11-26T03:23:09.881Z,27.13
2018-11-26T03:28:07.510Z,24.00
2018-11-26T03:30:36.722Z,26.57
2018-11-26T03:33:06.015Z,25.47
2018-11-26T03:35:35.024Z,25.80
2018-11-26T03:38:04.109Z,26.07
2018-11-26T03:40:34.138Z,25.20
2018-11-26T03:43:03.110Z,23.70
2018-11-26T03:45:32.775Z,24.57
2018-11-26T03:48:01.700Z,23.77
2018-11-26T03:50:30.604Z,24.67
2018-11-26T03:52:59.627Z,24.90
2018-11-26T03:55:28.584Z,24.57
2018-11-26T03:57:57.495Z,25.37
2018-11-26T04:00:26.545Z,24.93
2018-11-26T04:02:55.551Z,25.00
2018-11-26T04:05:24.490Z,25.87
2018-11-26T04:07:53.457Z,23.10
2018-11-26T04:10:22.396Z,25.33
2018-11-26T04:12:51.387Z,26.90
2018-11-26T04:15:20.502Z,27.77
2018-11-26T04:17:49.546Z,26.77
2018-11-26T04:20:18.540Z,25.60
2018-11-26T04:22:47.626Z,26.33
2018-11-26T04:25:16.616Z,25.37
2018-11-26T04:27:45.609Z,24.47
2018-11-26T04:30:14.718Z,23.23
2018-11-26T04:32:43.677Z,25.07
2018-11-26T04:35:12.626Z,23.33
2018-11-26T04:37:41.788Z,23.53
2018-11-26T04:40:11.085Z,24.10
2018-11-26T04:42:40.113Z,22.50
2018-11-26T04:45:10.208Z,24.13
2018-11-26T04:47:39.388Z,25.33
2018-11-26T04:50:11.650Z,22.50
2018-11-26T04:52:40.854Z,23.83
2018-11-26T04:55:14.221Z,25.03
2018-11-26T04:57:43.289Z,24.93
2018-11-26T05:00:14.552Z,26.17
2018-11-26T05:02:43.677Z,22.60
2018-11-26T05:05:13.434Z,24.00
2018-11-26T05:07:42.599Z,26.33
2018-11-26T05:10:12.907Z,26.53
2018-11-26T05:12:41.947Z,26.57
2018-11-26T05:15:13.004Z,25.27
2018-11-26T05:17:42.042Z,25.67
2018-11-26T05:20:12.100Z,25.47
2018-11-26T05:22:41.175Z,26.83
2018-11-26T05:25:11.031Z,25.63
2018-11-26T05:27:40.059Z,26.43
2018-11-26T05:30:12.454Z,24.97
2018-11-26T05:32:41.846Z,20.27
2018-11-26T05:35:11.699Z,24.10
2018-11-26T05:37:40.748Z,23.33
2018-11-26T05:40:12.175Z,23.00
2018-11-26T05:42:41.401Z,24.43
2018-11-26T05:45:11.690Z,22.53
2018-11-26T05:47:41.302Z,22.37
2018-11-26T05:50:11.555Z,22.73
2018-11-26T05:52:41.134Z,23.87
2018-11-26T05:55:13.431Z,23.40
2018-11-26T05:57:42.462Z,23.23
2018-11-26T06:00:23.401Z,23.57
2018-11-26T06:02:52.377Z,21.70
2018-11-26T06:05:21.412Z,20.33
2018-11-26T06:07:50.365Z,22.60
2018-11-26T06:10:20.409Z,21.77
2018-11-26T06:12:49.426Z,22.27
2018-11-26T06:15:18.374Z,20.03
2018-11-26T06:17:47.465Z,21.87
2018-11-26T06:20:16.410Z,22.60
2018-11-26T06:22:46.597Z,21.07
2018-11-26T06:25:17.086Z,21.80
2018-11-26T06:27:46.101Z,21.30
2018-11-26T06:30:15.929Z,18.73
2018-11-26T06:32:45.096Z,22.37
2018-11-26T06:35:22.709Z,22.53
2018-11-26T06:37:51.850Z,19.97
2018-11-26T06:40:20.954Z,21.63
2018-11-26T06:42:50.219Z,21.43
2018-11-26T06:45:21.582Z,21.30
2018-11-26T06:47:50.803Z,21.73
2018-11-26T06:50:21.606Z,20.63
2018-11-26T06:52:50.880Z,22.43
2018-11-26T06:55:20.935Z,19.80
2018-11-26T06:57:50.418Z,20.73
2018-11-26T07:00:20.493Z,22.10
2018-11-26T07:02:49.613Z,20.27
2018-11-26T07:05:20.411Z,22.30
2018-11-26T07:07:49.446Z,21.67
2018-11-26T07:10:19.602Z,18.37
2018-11-26T07:12:48.623Z,20.70
2018-11-26T07:15:19.046Z,20.50
2018-11-26T07:17:48.398Z,22.13
2018-11-26T07:20:22.427Z,21.90
2018-11-26T07:22:51.526Z,22.73
2018-11-26T07:25:25.246Z,21.10
2018-11-26T07:27:55.271Z,22.10
2018-11-26T07:30:25.591Z,23.40
2018-11-26T07:32:54.723Z,21.57
2018-11-26T07:35:23.862Z,22.03
2018-11-26T07:37:53.521Z,22.97
2018-11-26T07:40:24.051Z,22.73
2018-11-26T07:42:54.804Z,22.77
2018-11-26T07:45:23.877Z,26.47
2018-11-26T07:47:53.012Z,25.57
2018-11-26T07:50:26.164Z,25.00
2018-11-26T07:52:55.263Z,25.63
2018-11-26T07:55:24.254Z,26.33
2018-11-26T07:57:53.435Z,23.50
2018-11-26T08:00:22.973Z,25.37
2018-11-26T08:02:52.280Z,25.83
2018-11-26T08:05:23.377Z,27.13
2018-11-26T08:07:52.477Z,25.97
2018-11-26T08:10:22.651Z,24.83
2018-11-26T08:12:52.767Z,27.30
2018-11-26T08:15:25.699Z,26.43
2018-11-26T08:17:55.229Z,25.43
2018-11-26T08:20:24.333Z,27.23
2018-11-26T08:22:53.304Z,24.97
2018-11-26T08:25:23.506Z,27.77
2018-11-26T08:27:52.636Z,27.93
2018-11-26T08:30:23.867Z,27.43
2018-11-26T08:32:58.031Z,25.47
2018-11-26T08:35:27.325Z,26.13
2018-11-26T08:38:01.488Z,26.87
2018-11-26T08:40:32.480Z,25.83
2018-11-26T08:43:15.665Z,24.53
2018-11-26T08:45:52.034Z,23.30
2018-11-26T08:48:26.325Z,23.57
2018-11-26T08:50:56.339Z,25.00
2018-11-26T08:53:25.478Z,22.80
2018-11-26T08:55:54.503Z,22.23
2018-11-26T08:58:23.476Z,21.33
2018-11-26T09:00:57.712Z,23.70
2018-11-26T09:03:31.864Z,22.70
2018-11-26T09:06:01.251Z,23.03
2018-11-26T09:08:31.801Z,22.70
2018-11-26T09:11:01.742Z,22.07
2018-11-26T09:13:30.765Z,23.97
2018-11-26T09:16:00.545Z,23.10
2018-11-26T09:18:30.138Z,23.37
2018-11-26T09:20:59.235Z,21.50
2018-11-26T09:23:28.471Z,21.63
2018-11-26T09:26:02.211Z,19.53
2018-11-26T09:28:32.253Z,18.67
2018-11-26T09:31:05.475Z,18.20
2018-11-26T09:33:34.616Z,17.23
2018-11-26T09:36:06.026Z,18.53
2018-11-26T09:38:35.792Z,17.33
2018-11-26T09:41:05.183Z,15.80
2018-11-26T09:43:34.344Z,17.00
2018-11-26T09:46:03.989Z,17.43
2018-11-26T09:48:33.916Z,17.60
2018-11-26T09:51:03.271Z,20.10
2018-11-26T09:53:32.333Z,17.47
2018-11-26T09:56:01.614Z,14.90
2018-11-26T09:58:30.809Z,14.73
2018-11-26T10:01:00.336Z,16.03
2018-11-26T10:03:29.358Z,16.43
2018-11-26T10:05:58.465Z,15.97
2018-11-26T10:08:27.956Z,15.47
2018-11-26T10:10:57.136Z,14.43
2018-11-26T10:13:27.580Z,12.87
2018-11-26T10:15:56.692Z,15.17
2018-11-26T10:18:25.754Z,14.47
2018-11-26T10:20:54.996Z,13.60
2018-11-26T10:23:24.032Z,14.77
2018-11-26T10:25:53.315Z,13.23
2018-11-26T10:28:23.196Z,14.70
2018-11-26T10:30:53.682Z,14.23
2018-11-26T10:33:22.751Z,13.83
2018-11-26T10:35:52.098Z,15.03
2018-11-26T10:38:21.295Z,14.03
2018-11-26T10:40:50.480Z,14.00
2018-11-26T10:43:19.586Z,13.40
2018-11-26T10:45:49.934Z,11.77
2018-11-26T10:48:20.606Z,10.13
2018-11-26T10:50:54.114Z,10.20
2018-11-26T10:53:23.190Z,11.10
2018-11-26T10:55:52.263Z,11.10
2018-11-26T10:58:22.108Z,10.03
2018-11-26T11:00:56.522Z,11.50
2018-11-26T11:03:25.931Z,11.57
2018-11-26T11:06:00.695Z,10.53
2018-11-26T11:08:30.050Z,11.63
2018-11-26T11:10:59.683Z,11.67
2018-11-26T11:13:29.078Z,11.23
2018-11-26T11:15:58.223Z,10.90
2018-11-26T11:18:27.254Z,10.63
2018-11-26T11:20:56.285Z,10.77
2018-11-26T11:23:25.385Z,10.60
2018-11-26T11:25:54.501Z,9.57
2018-11-26T11:28:23.717Z,10.23
2018-11-26T11:30:52.941Z,10.13
2018-11-26T11:35:52.461Z,10.30
2018-11-26T11:38:22.270Z,9.67
2018-11-26T11:40:51.467Z,9.33
2018-11-26T11:43:20.774Z,9.97
2018-11-26T11:45:50.447Z,10.07
2018-11-26T11:48:20.814Z,9.77
2018-11-26T11:50:50.987Z,11.43
2018-11-26T11:53:20.187Z,9.43
2018-11-26T11:55:49.493Z,9.57
2018-11-26T11:58:23.981Z,9.27
2018-11-26T12:00:53.180Z,10.10
2018-11-26T12:03:22.639Z,10.03
2018-11-26T12:05:53.063Z,10.77
2018-11-26T12:08:22.322Z,9.60
2018-11-26T12:10:51.724Z,12.00
2018-11-26T12:13:20.929Z,11.70
2018-11-26T12:15:53.203Z,11.00
2018-11-26T12:18:22.644Z,11.27
2018-11-26T12:20:51.892Z,10.87
2018-11-26T12:23:21.070Z,10.73
2018-11-26T12:25:50.369Z,11.70
2018-11-26T12:28:19.670Z,11.17
2018-11-26T12:30:48.895Z,11.57
2018-11-26T12:33:18.114Z,11.40
2018-11-26T12:35:47.144Z,10.83
2018-11-26T12:38:16.345Z,9.60
2018-11-26T12:40:45.490Z,10.30
2018-11-26T12:43:14.720Z,10.57
2018-11-26T12:45:44.023Z,10.87
2018-11-26T12:48:13.150Z,9.87
2018-11-26T12:50:42.243Z,10.07
2018-11-26T12:53:11.753Z,9.53
2018-11-26T12:55:41.521Z,9.47
2018-11-26T12:58:10.966Z,9.37
2018-11-26T13:00:40.260Z,10.97
2018-11-26T13:03:12.698Z,10.17
2018-11-26T13:05:41.791Z,10.40
2018-11-26T13:08:10.923Z,9.73
2018-11-26T13:10:40.192Z,10.37
2018-11-26T13:13:10.595Z,10.93
2018-11-26T13:15:39.956Z,12.97
2018-11-26T13:18:09.155Z,13.57
2018-11-26T13:20:38.554Z,10.63
2018-11-26T13:23:11.163Z,11.80
2018-11-26T13:25:42.089Z,10.37
2018-11-26T13:28:10.347Z,10.27
2018-11-26T13:30:41.305Z,11.40
2018-11-26T13:33:13.040Z,10.60
2018-11-26T13:35:42.023Z,10.57
2018-11-26T13:38:11.130Z,9.20
2018-11-26T13:40:40.267Z,11.27
2018-11-26T13:43:10.410Z,12.20
2018-11-26T13:45:41.255Z,12.77
2018-11-26T13:48:11.635Z,10.70
2018-11-26T13:50:44.133Z,10.40
2018-11-26T13:53:13.287Z,12.50
2018-11-26T13:55:42.343Z,14.27
2018-11-26T13:58:11.519Z,12.67
2018-11-26T14:00:40.681Z,13.03
2018-11-26T14:03:09.769Z,14.17
2018-11-26T14:05:38.856Z,14.53
2018-11-26T14:08:08.216Z,12.70
2018-11-26T14:10:42.890Z,12.47
2018-11-26T14:13:17.879Z,13.80
2018-11-26T14:15:52.105Z,13.87
2018-11-26T14:18:21.217Z,16.63
2018-11-26T14:23:17.405Z,14.40
2018-11-26T14:25:46.668Z,12.77
2018-11-26T14:28:17.533Z,11.87
2018-11-26T14:30:46.603Z,15.97
2018-11-26T14:33:15.647Z,20.50
2018-11-26T14:35:44.972Z,23.03
2018-11-26T14:38:14.151Z,19.53
2018-11-26T14:40:45.732Z,24.20
2018-11-26T14:43:14.822Z,17.50
2018-11-26T14:45:43.866Z,16.07
2018-11-26T14:48:13.488Z,14.30
2018-11-26T14:50:42.736Z,17.00
2018-11-26T14:53:14.252Z,19.33
2018-11-26T14:55:43.306Z,19.30
2018-11-26T14:58:12.529Z,21.00
2018-11-26T15:00:41.915Z,27.33
2018-11-26T15:03:11.035Z,24.03
2018-11-26T15:05:40.362Z,27.47
2018-11-26T15:08:11.513Z,26.83
2018-11-26T15:11:05.215Z,28.67
2018-11-26T15:16:29.187Z,30.53
2018-11-26T15:19:01.323Z,39.97
2018-11-26T15:21:38.347Z,55.43
2018-11-26T15:24:10.645Z,50.87
2018-11-26T15:26:40.777Z,50.60
2018-11-26T15:29:15.099Z,45.97
2018-11-26T15:31:50.125Z,39.60
2018-11-26T15:34:15.134Z,39.47
2018-11-26T15:36:44.822Z,38.03
2018-11-26T15:39:14.333Z,61.57
2018-11-26T15:41:43.975Z,39.63
2018-11-26T15:44:13.586Z,25.67
2018-11-26T15:46:43.172Z,23.10
2018-11-26T15:49:12.810Z,22.17
2018-11-26T15:51:43.272Z,19.80
2018-11-26T15:54:13.040Z,21.63
2018-11-26T15:56:43.097Z,21.30
2018-11-26T15:59:14.760Z,23.77
2018-11-26T16:01:44.049Z,24.13
2018-11-26T16:04:13.523Z,26.17
2018-11-26T16:06:42.802Z,26.80
2018-11-26T16:09:11.986Z,27.73
2018-11-26T16:11:41.218Z,19.00
2018-11-26T16:14:10.689Z,20.57
2018-11-26T16:16:40.022Z,16.67
2018-11-26T16:19:09.272Z,18.77
2018-11-26T16:21:38.455Z,25.97
2018-11-26T16:24:08.305Z,23.00
2018-11-26T16:26:39.070Z,20.87
2018-11-26T16:29:08.224Z,33.50
2018-11-26T16:31:37.510Z,37.83
2018-11-26T16:34:07.059Z,37.80
2018-11-26T16:36:36.131Z,30.97
2018-11-26T16:39:07.687Z,33.03
2018-11-26T16:41:36.938Z,35.50
2018-11-26T16:44:06.162Z,39.30
2018-11-26T16:46:35.321Z,48.53
2018-11-26T16:49:04.531Z,40.30
2018-11-26T16:51:34.275Z,34.27
2018-11-26T16:54:03.358Z,36.87
2018-11-26T16:56:32.454Z,36.10
2018-11-26T16:59:01.597Z,35.73
2018-11-26T17:01:30.651Z,37.90
2018-11-26T17:04:00.498Z,48.00
2018-11-26T17:06:29.734Z,48.27
2018-11-26T17:08:59.666Z,39.67
2018-11-26T17:11:28.699Z,29.53
2018-11-26T17:13:57.740Z,26.83
2018-11-26T17:16:27.593Z,27.87
2018-11-26T17:18:56.810Z,29.37
2018-11-26T17:21:27.101Z,23.70
2018-11-26T17:26:24.406Z,23.57
2018-11-26T17:28:53.704Z,21.03
2018-11-26T17:31:22.855Z,20.50
2018-11-26T17:33:52.184Z,22.10
2018-11-26T17:36:21.287Z,19.50
2018-11-26T17:38:51.248Z,22.40
2018-11-26T17:41:23.899Z,44.30
2018-11-26T17:43:52.923Z,52.03
2018-11-26T17:46:21.914Z,37.10
2018-11-26T17:48:51.201Z,39.77
2018-11-26T17:51:20.256Z,42.60
2018-11-26T17:53:49.245Z,43.60
2018-11-26T17:56:18.747Z,47.03
2018-11-26T17:58:48.253Z,51.47
2018-11-26T18:01:38.380Z,42.53
2018-11-26T18:04:08.720Z,28.33
2018-11-26T18:06:37.739Z,32.87
2018-11-26T18:09:10.590Z,30.10
2018-11-26T18:11:39.572Z,24.67
2018-11-26T18:14:08.853Z,34.37
2018-11-26T18:16:37.898Z,29.20
2018-11-26T18:19:07.339Z,36.00
2018-11-26T18:21:36.276Z,20.87
2018-11-26T18:24:05.744Z,28.40
2018-11-26T18:26:34.899Z,31.40
2018-11-26T18:29:04.699Z,35.83
2018-11-26T18:31:33.789Z,35.27
2018-11-26T18:34:02.956Z,41.70
2018-11-26T18:36:31.933Z,32.50
2018-11-26T18:39:01.000Z,29.53
2018-11-26T18:41:29.945Z,30.27
2018-11-26T18:43:59.069Z,41.20
2018-11-26T18:46:28.205Z,27.07
2018-11-26T18:48:57.186Z,28.50
2018-11-26T18:51:26.247Z,21.37
2018-11-26T18:53:55.318Z,27.63
2018-11-26T18:56:25.047Z,25.70
2018-11-26T18:58:54.067Z,25.30
2018-11-26T19:01:23.297Z,27.13
2018-11-26T19:03:52.377Z,24.07
2018-11-26T19:06:21.470Z,23.73
2018-11-26T19:08:50.818Z,25.63
2018-11-26T19:11:20.261Z,21.03
2018-11-26T19:13:54.440Z,22.53
2018-11-26T19:16:27.609Z,19.57
2018-11-26T19:18:56.762Z,22.53
2018-11-26T19:21:26.047Z,18.57
2018-11-26T19:23:55.319Z,16.53
2018-11-26T19:26:25.828Z,22.57
2018-11-26T19:28:54.406Z,19.30
2018-11-26T19:31:23.606Z,23.20
2018-11-26T19:33:53.205Z,29.27
2018-11-26T19:36:24.574Z,25.67
2018-11-26T19:38:53.836Z,22.13
2018-11-26T19:41:23.111Z,32.17
2018-11-26T19:43:52.408Z,39.50
2018-11-26T19:46:21.647Z,28.13
2018-11-26T19:48:50.845Z,28.00
2018-11-26T19:51:19.903Z,27.50
2018-11-26T19:53:48.993Z,27.57
2018-11-26T19:56:18.152Z,27.87
2018-11-26T19:58:47.276Z,23.10
2018-11-26T20:01:16.325Z,20.60
2018-11-26T20:03:48.262Z,24.43
2018-11-26T20:06:19.815Z,23.33
2018-11-26T20:08:54.725Z,29.47
2018-11-26T20:11:23.851Z,30.87
2018-11-26T20:13:52.956Z,31.93
2018-11-26T20:16:28.743Z,30.47
2018-11-26T20:18:57.698Z,26.03
2018-11-26T20:21:26.798Z,29.90
2018-11-26T20:23:56.052Z,36.03
2018-11-26T20:26:25.127Z,38.80
2018-11-26T20:28:56.905Z,29.37
2018-11-26T20:31:23.182Z,29.63
2018-11-26T20:33:52.377Z,31.30
2018-11-26T20:36:21.525Z,30.60
2018-11-26T20:38:50.623Z,29.70
2018-11-26T20:41:19.714Z,22.77
2018-11-26T20:43:48.701Z,22.93
2018-11-26T20:46:17.798Z,23.80
2018-11-26T20:48:46.933Z,22.70
2018-11-26T20:51:15.988Z,24.10
2018-11-26T20:53:45.108Z,23.13
2018-11-26T20:56:16.700Z,23.60
2018-11-26T20:58:46.584Z,25.90
2018-11-26T21:01:15.641Z,31.93
2018-11-26T21:03:44.634Z,27.30
2018-11-26T21:06:14.136Z,32.07
2018-11-26T21:08:43.338Z,32.57
2018-11-26T21:11:12.539Z,31.57
2018-11-26T21:13:41.669Z,27.37
2018-11-26T21:16:10.830Z,28.90
2018-11-26T21:18:39.857Z,27.07
2018-11-26T21:21:09.427Z,31.20
2018-11-26T21:23:38.497Z,37.70
2018-11-26T21:26:08.819Z,40.17
2018-11-26T21:28:37.904Z,44.33
2018-11-26T21:31:07.074Z,38.90
2018-11-26T21:33:36.724Z,31.97
2018-11-26T21:36:05.981Z,25.00
2018-11-26T21:38:37.057Z,25.00
2018-11-26T21:41:06.938Z,36.73
2018-11-26T21:43:35.929Z,31.23
2018-11-26T21:46:05.026Z,29.40
2018-11-26T21:48:34.128Z,25.87
2018-11-26T21:51:03.251Z,26.70
2018-11-26T21:53:32.239Z,27.37
2018-11-26T21:56:01.315Z,24.80
2018-11-26T21:58:30.311Z,25.57
2018-11-26T22:01:00.727Z,29.70
2018-11-26T22:03:30.639Z,30.83
2018-11-26T22:05:58.800Z,55.10
2018-11-26T22:08:27.900Z,25.37
2018-11-26T22:10:56.957Z,32.23
2018-11-26T22:13:25.870Z,26.13
2018-11-26T22:15:54.892Z,33.37
2018-11-26T22:18:23.938Z,33.57
2018-11-26T22:20:52.972Z,30.90
2018-11-26T22:23:21.895Z,26.17
2018-11-26T22:25:50.948Z,27.33
2018-11-26T22:28:19.930Z,25.50
2018-11-26T22:30:48.893Z,26.90
2018-11-26T22:33:17.932Z,30.73
2018-11-26T22:35:46.895Z,27.80
2018-11-26T22:38:15.913Z,27.20
2018-11-26T22:40:44.915Z,27.80
2018-11-26T22:43:13.920Z,26.27
2018-11-26T22:45:42.825Z,29.43
2018-11-26T22:48:13.102Z,23.20
2018-11-26T22:50:43.862Z,25.37
2018-11-26T22:53:12.903Z,26.23
2018-11-26T22:55:42.047Z,27.83
2018-11-26T22:58:13.183Z,28.43
2018-11-26T23:00:48.104Z,20.27
2018-11-26T23:03:18.607Z,27.87
2018-11-26T23:05:47.546Z,27.60
2018-11-26T23:08:16.607Z,25.53
2018-11-26T23:10:45.619Z,29.40
2018-11-26T23:13:14.606Z,24.33
2018-11-26T23:15:43.620Z,29.73
2018-11-26T23:18:12.652Z,30.63
2018-11-26T23:20:41.590Z,27.13
2018-11-26T23:23:10.616Z,28.63
2018-11-26T23:25:39.560Z,25.47
2018-11-26T23:28:08.643Z,27.80
2018-11-26T23:30:37.657Z,26.73
2018-11-26T23:33:07.681Z,26.50
2018-11-26T23:35:36.643Z,25.50
2018-11-26T23:38:06.027Z,26.53
2018-11-26T23:40:35.471Z,28.73
2018-11-26T23:43:04.373Z,26.90
2018-11-26T23:45:33.452Z,26.73
2018-11-26T23:48:02.434Z,27.20
2018-11-26T23:50:31.461Z,27.13
2018-11-26T23:53:00.455Z,28.63
2018-11-26T23:55:29.511Z,20.57
2018-11-26T23:57:58.422Z,24.87
